Airport View

Enter AWOS ICAO identifier for current METAR.

ex. KFNL

KGCD 181120Z AUTO 08007KT 10SM BKN080 M01/M05 A3021 RMK AO2 T10091050

18 Jan 2020 11:24

Frequency: 118.375

Phone: 541-575-1122

Other Area AWOS: KBNO - KBKE - KLGD - KMEH

TAF KBNO 180520Z 1806/1906 10005KT P6SM VCSH BKN030 OVC050 TEMPO 1806/1810 2SM -SHSN BKN012 OVC020 FM181200 VRB05KT P6SM BKN050 FM181700 VRB03KT P6SM VCSH OVC050 FM182300 VRB03KT P6SM OVC050